Harleton, Texas
Current Conditions -  °F | °C
As of 2:35 PM on Saturday 25 Oct 2014 (Local Time) from KASL Reporting Station
Clear Clear  
Wind Chill: 86°   Ceiling: Unl
Heat Index: 88°   Visibility: 10mi
Dew Point: 65°   Wind: 3mph
Humidity: 49%   Direction: 280°W
Pressure: 30.11"   Gusts: NA
Location:  32.68°N, 94.58°W
Report Text: KASL 251935Z AUTO 28003KT 10SM CLR 30/18 A3011 RMK AO1 T03000181
Loading
Personal Weather Stations






























Interactive Weather Map
Tropical Storm Tracking
New forecast layout! Learn more

10-Day Weather Forecast

Advertisements
Track Severe Weather on mobile